createdAt,value
2022-10-26T00:02:16.423Z,77.09
2022-10-26T00:07:19.090Z,77.51
2022-10-26T00:12:21.888Z,77.59
2022-10-26T00:17:24.560Z,77.96
2022-10-26T00:22:27.887Z,78.20
2022-10-26T00:27:30.526Z,77.86
2022-10-26T00:32:33.835Z,78.06
2022-10-26T00:37:36.433Z,77.75
2022-10-26T00:42:39.100Z,77.98
2022-10-26T00:47:46.105Z,77.48
2022-10-26T00:52:51.754Z,77.24
2022-10-26T00:57:56.009Z,77.37
2022-10-26T01:03:03.001Z,77.63
2022-10-26T01:08:06.947Z,78.00
2022-10-26T01:13:10.684Z,77.42
2022-10-26T01:18:38.435Z,76.63
2022-10-26T01:23:50.085Z,76.94
2022-10-26T01:29:07.708Z,76.70
2022-10-26T01:34:20.444Z,76.82
2022-10-26T01:39:30.097Z,76.74
2022-10-26T01:44:43.048Z,77.62
2022-10-26T01:49:51.298Z,77.43
2022-10-26T01:55:01.890Z,77.57
2022-10-26T02:00:12.934Z,77.13
2022-10-26T02:05:33.277Z,76.79
2022-10-26T02:11:03.268Z,76.99
2022-10-26T02:16:29.672Z,77.27
2022-10-26T02:21:38.656Z,77.24
2022-10-26T02:26:45.066Z,76.98
2022-10-26T02:31:50.335Z,77.27
2022-10-26T02:36:55.347Z,77.28
2022-10-26T02:42:01.816Z,77.73
2022-10-26T02:47:04.614Z,78.23
2022-10-26T02:52:26.451Z,78.43
2022-10-26T02:57:39.963Z,78.42
2022-10-26T03:02:47.614Z,78.45
2022-10-26T03:07:51.456Z,78.07
2022-10-26T03:12:54.382Z,78.75
2022-10-26T03:17:57.002Z,78.33
2022-10-26T03:23:00.257Z,78.43
2022-10-26T03:28:04.464Z,78.11
2022-10-26T03:33:07.263Z,79.02
2022-10-26T03:38:15.147Z,78.26
2022-10-26T03:43:18.725Z,78.41
2022-10-26T03:48:22.037Z,78.27
2022-10-26T03:53:24.774Z,77.87
2022-10-26T03:58:27.471Z,78.05
2022-10-26T04:03:30.063Z,78.35
2022-10-26T04:08:32.605Z,77.83
2022-10-26T04:13:35.329Z,77.55
2022-10-26T04:18:37.895Z,77.79
2022-10-26T04:23:40.577Z,77.84
2022-10-26T04:28:43.086Z,77.67
2022-10-26T04:33:45.579Z,76.94
2022-10-26T04:38:49.212Z,76.75
2022-10-26T04:43:51.788Z,76.01
2022-10-26T04:48:54.405Z,76.05
2022-10-26T04:53:58.252Z,76.16
2022-10-26T04:59:00.909Z,75.54
2022-10-26T05:04:03.567Z,75.89
2022-10-26T05:09:06.305Z,75.36
2022-10-26T05:14:09.879Z,74.99
2022-10-26T05:19:12.451Z,74.95
2022-10-26T05:24:15.095Z,74.25
2022-10-26T05:29:17.664Z,74.37
2022-10-26T05:34:20.282Z,73.91
2022-10-26T05:39:22.805Z,73.26
2022-10-26T05:44:25.403Z,73.02
2022-10-26T05:49:28.019Z,72.94
2022-10-26T05:54:30.808Z,72.63
2022-10-26T05:59:33.896Z,72.08
2022-10-26T06:04:44.543Z,71.72
2022-10-26T06:09:47.893Z,71.76
2022-10-26T06:14:50.824Z,71.76
2022-10-26T06:25:18.195Z,70.53
2022-10-26T06:30:23.425Z,69.70
2022-10-26T06:35:34.839Z,68.76
2022-10-26T06:40:40.808Z,67.73
2022-10-26T06:45:48.824Z,67.10
2022-10-26T06:50:54.606Z,65.41
2022-10-26T06:56:00.019Z,64.37
2022-10-26T07:01:03.651Z,63.88
2022-10-26T07:06:06.810Z,61.71
2022-10-26T07:11:09.484Z,60.59
2022-10-26T07:16:12.108Z,60.91
2022-10-26T07:21:14.755Z,59.65
2022-10-26T07:26:17.639Z,59.60
2022-10-26T07:31:20.352Z,58.97
2022-10-26T07:36:23.630Z,58.49
2022-10-26T07:41:26.202Z,58.02
2022-10-26T07:46:29.060Z,57.08
2022-10-26T07:51:31.656Z,57.19
2022-10-26T07:56:35.254Z,56.71
2022-10-26T08:01:38.113Z,56.68
2022-10-26T08:06:40.745Z,55.92
2022-10-26T08:11:43.279Z,56.18
2022-10-26T08:16:46.086Z,56.04
2022-10-26T08:21:48.850Z,55.97
2022-10-26T08:26:51.456Z,55.19
2022-10-26T08:31:54.114Z,55.85
2022-10-26T08:36:56.718Z,56.12
2022-10-26T08:42:10.809Z,55.47
2022-10-26T08:47:23.033Z,55.07
2022-10-26T08:52:33.049Z,54.81
2022-10-26T08:57:44.220Z,55.11
2022-10-26T09:02:54.238Z,54.60
2022-10-26T09:08:06.505Z,54.65
2022-10-26T09:13:26.862Z,54.32
2022-10-26T09:24:02.354Z,54.37
2022-10-26T09:29:11.863Z,54.59
2022-10-26T09:34:26.690Z,55.26
2022-10-26T09:39:39.265Z,55.71
2022-10-26T09:45:00.484Z,54.93
2022-10-26T09:50:28.845Z,54.95
2022-10-26T09:55:32.794Z,55.01
2022-10-26T10:00:38.053Z,55.20
2022-10-26T10:05:56.636Z,55.73
2022-10-26T10:11:09.327Z,55.27
2022-10-26T10:16:25.586Z,55.85
2022-10-26T10:21:44.508Z,56.03
2022-10-26T10:26:59.313Z,55.75
2022-10-26T10:32:03.555Z,56.09
2022-10-26T10:37:06.264Z,55.71
2022-10-26T10:42:21.005Z,55.58
2022-10-26T10:47:31.047Z,55.77
2022-10-26T10:52:36.675Z,55.85
2022-10-26T10:57:45.615Z,55.78
2022-10-26T11:03:00.449Z,55.94
2022-10-26T11:08:13.218Z,55.91
2022-10-26T11:13:40.020Z,55.54
2022-10-26T11:19:18.864Z,55.26
2022-10-26T11:24:39.027Z,56.21
2022-10-26T11:29:56.780Z,56.03
2022-10-26T11:35:06.744Z,55.64
2022-10-26T11:40:23.707Z,55.81
2022-10-26T11:45:35.972Z,55.46
2022-10-26T11:50:45.359Z,56.15
2022-10-26T11:55:56.561Z,55.47
2022-10-26T12:01:08.032Z,55.61
2022-10-26T12:06:11.477Z,55.69
2022-10-26T12:11:30.728Z,55.30
2022-10-26T12:17:12.768Z,55.40
2022-10-26T12:22:19.151Z,55.81
2022-10-26T12:27:55.068Z,55.70
2022-10-26T12:33:00.508Z,55.74
2022-10-26T12:38:21.919Z,55.63
2022-10-26T12:43:50.428Z,56.24
2022-10-26T12:48:56.234Z,56.46
2022-10-26T12:54:01.294Z,57.12
2022-10-26T12:59:31.129Z,57.21
2022-10-26T13:04:50.252Z,57.18
2022-10-26T13:10:01.984Z,57.62
2022-10-26T13:15:29.302Z,58.15
2022-10-26T13:20:32.706Z,58.93
2022-10-26T13:25:35.312Z,59.17
2022-10-26T13:30:47.112Z,59.57
2022-10-26T13:35:53.675Z,60.46
2022-10-26T13:41:07.212Z,60.29
2022-10-26T13:46:24.203Z,59.83
2022-10-26T13:51:44.304Z,60.71
2022-10-26T13:57:11.321Z,60.00
2022-10-26T14:02:22.265Z,61.47
2022-10-26T14:07:33.960Z,61.68
2022-10-26T14:12:38.498Z,62.25
2022-10-26T14:17:41.973Z,62.38
2022-10-26T14:22:44.818Z,63.01
2022-10-26T14:27:47.857Z,63.97
2022-10-26T14:32:53.305Z,64.75
2022-10-26T14:37:58.072Z,64.75
2022-10-26T14:43:02.656Z,65.12
2022-10-26T14:48:07.634Z,65.45
2022-10-26T14:53:16.975Z,66.02
2022-10-26T15:03:30.760Z,67.24
2022-10-26T15:09:00.965Z,67.39
2022-10-26T15:14:03.588Z,67.67
2022-10-26T15:19:12.008Z,67.60
2022-10-26T15:24:37.674Z,68.30
2022-10-26T15:29:43.231Z,68.68
2022-10-26T15:35:05.392Z,68.83
2022-10-26T15:40:08.727Z,69.01
2022-10-26T15:45:27.613Z,70.54
2022-10-26T15:50:30.317Z,70.28
2022-10-26T15:55:33.148Z,70.36
2022-10-26T16:00:35.797Z,70.57
2022-10-26T16:05:38.430Z,70.38
2022-10-26T16:10:41.269Z,70.63
2022-10-26T16:15:44.501Z,70.41
2022-10-26T16:20:47.431Z,70.50
2022-10-26T16:25:50.110Z,70.76
2022-10-26T16:31:02.033Z,71.17
2022-10-26T16:36:05.618Z,71.76
2022-10-26T16:41:13.690Z,71.32
2022-10-26T16:46:19.705Z,71.51
2022-10-26T16:51:24.824Z,71.19
2022-10-26T16:56:29.969Z,71.61
2022-10-26T17:01:32.744Z,72.14
2022-10-26T17:06:35.454Z,71.92
2022-10-26T17:11:38.153Z,72.39
2022-10-26T17:16:41.010Z,72.16
2022-10-26T17:21:44.516Z,72.69
2022-10-26T17:26:47.207Z,72.46
2022-10-26T17:31:49.721Z,72.39
2022-10-26T17:36:52.367Z,72.33
2022-10-26T17:41:54.976Z,72.90
2022-10-26T17:46:57.676Z,72.61
2022-10-26T17:52:00.361Z,72.68
2022-10-26T17:57:03.412Z,72.05
2022-10-26T18:02:06.071Z,72.47
2022-10-26T18:07:08.863Z,72.13
2022-10-26T18:12:11.626Z,72.54
2022-10-26T18:17:14.226Z,73.44
2022-10-26T18:22:16.800Z,73.16
2022-10-26T18:27:20.387Z,72.95
2022-10-26T18:32:22.969Z,73.10
2022-10-26T18:37:26.580Z,73.31
2022-10-26T18:42:29.247Z,73.42
2022-10-26T18:47:32.825Z,73.01
2022-10-26T18:52:35.430Z,72.76
2022-10-26T18:57:38.052Z,73.67
2022-10-26T19:02:40.644Z,73.23
2022-10-26T19:07:43.320Z,73.18
2022-10-26T19:12:46.034Z,72.92
2022-10-26T19:17:48.597Z,73.43
2022-10-26T19:22:53.600Z,73.01
2022-10-26T19:27:56.289Z,72.86
2022-10-26T19:33:00.247Z,72.87
2022-10-26T19:38:02.976Z,73.10
2022-10-26T19:43:05.549Z,72.61
2022-10-26T19:48:08.172Z,72.29
2022-10-26T19:53:10.791Z,71.69
2022-10-26T19:58:14.034Z,71.66
2022-10-26T20:03:16.732Z,72.51
2022-10-26T20:08:19.827Z,71.57
2022-10-26T20:13:23.210Z,71.43
2022-10-26T20:18:25.943Z,71.61
2022-10-26T20:23:28.584Z,71.32
2022-10-26T20:28:31.355Z,71.42
2022-10-26T20:33:33.933Z,70.94
2022-10-26T20:38:40.065Z,70.69
2022-10-26T20:43:43.123Z,70.26
2022-10-26T20:48:46.041Z,70.43
2022-10-26T20:54:04.684Z,70.42
2022-10-26T20:59:17.671Z,70.58
2022-10-26T21:04:20.369Z,70.07
2022-10-26T21:09:23.597Z,69.97
2022-10-26T21:14:29.084Z,69.67
2022-10-26T21:19:31.665Z,69.48
2022-10-26T21:29:42.112Z,69.46
2022-10-26T21:34:45.597Z,68.94
2022-10-26T21:39:48.498Z,68.49
2022-10-26T21:44:51.143Z,69.22
2022-10-26T21:49:53.725Z,69.11
2022-10-26T21:54:56.334Z,68.76
2022-10-26T21:59:58.876Z,68.93
2022-10-26T22:05:01.477Z,68.57
2022-10-26T22:10:13.147Z,68.99
2022-10-26T22:15:17.061Z,68.70
2022-10-26T22:20:19.600Z,68.49
2022-10-26T22:25:22.385Z,68.39
2022-10-26T22:30:25.080Z,68.40
2022-10-26T22:35:29.733Z,68.29
2022-10-26T22:40:32.739Z,68.15
2022-10-26T22:45:35.277Z,68.63
2022-10-26T22:50:38.619Z,68.91
2022-10-26T22:55:42.359Z,68.63
2022-10-26T23:00:44.963Z,68.61
2022-10-26T23:05:48.704Z,69.22
2022-10-26T23:10:51.422Z,68.83
2022-10-26T23:15:54.033Z,68.65
2022-10-26T23:20:57.180Z,69.27
2022-10-26T23:26:07.687Z,68.88
2022-10-26T23:31:19.475Z,69.07
2022-10-26T23:36:22.508Z,69.42
2022-10-26T23:41:25.035Z,69.09
2022-10-26T23:51:35.164Z,69.66
2022-10-26T23:56:37.805Z,69.37
